• Join FlightAware (Why Join?)
  • Login
  • US Flag 
11:44AM EST


 

Airport Tracker/Info


-or-


 

Live Flight TrackerFlight Track Log ✈ RPA3253 ✈ 02-Aug-2013 ✈ KALB - KCLT

Flight Track Log - Related Links

Times and Time Zones

All times are in EDT time to prevent confusion due to time zone crossing. See the RPA3253 flight status page for this flight to view local times or setup timezone preferences in your user account.

Time Position Orientation Groundspeed Altitude Reporting Facility
EDT Latitude Longitude Course Direction KTS MPH feet Rate Location/Type
07:39PM 42.8067 -73.8297 180° South 181 208 2,300  Level Boston Center
07:40PM 42.8375 -73.8672 318° Northwest 225 259 3,600 2,100 Climbing Boston Center
07:41PM 42.4585 -74.1172 180° South  Level Estimated
07:41PM 42.8931 -73.9250 323° Northwest 268 308 6,000  Level Boston Center
07:42PM 42.3857 -74.1955 170° South  Level Estimated
07:42PM 42.9169 -74.0136 290° West 253 291 8,900  Level Boston Center
07:43PM 42.3129 -74.2737 180° South  Level Estimated
07:43PM 42.9281 -74.1103 279° West 253 291 11,100  Level Boston Center
07:44PM 42.2400 -74.3517 169° South  Level Estimated
07:44PM 42.8975 -74.1944 244° Southwest 250 288 13,300  Level Boston Center
07:45PM 42.1671 -74.4295 180° South  Level Estimated
07:45PM 42.8208 -74.1725 168° South 202 232 15,100  Level Boston Center
07:46PM 42.7339 -74.1219 157° South 266 306 17,200 1,680 Climbing Boston Center
07:47PM 42.6492 -74.0772 159° South 313 360 18,500 1,320 Climbing Boston Center
07:48PM 42.5539 -74.0269 159° South 346 398 19,900 1,320 Climbing Boston Center
07:49PM 42.4589 -73.9739 158° South 366 421 21,200 1,140 Climbing Boston Center
07:50PM 42.3553 -73.9178 158° South 381 438 22,200 1,080 Climbing Boston Center
07:51PM 42.2497 -73.8594 158° South 406 467 23,400 1,200 Climbing Boston Center
07:52PM 42.1422 -73.8008 158° South 412 474 24,700 780 Climbing Boston Center
07:53PM 42.0322 -73.7567 163° South 412 474 25,000 780 Climbing Boston Center
07:55PM 41.8275 -73.8442 198° South 380 437 27,100 1,080 Climbing New York Center
07:56PM 41.7261 -73.9006 203° Southwest 386 444 28,300 1,140 Climbing New York Center
07:57PM 41.6247 -73.9569 203° Southwest 397 457 29,400 840 Climbing New York Center
07:58PM 41.5231 -74.0131 202° Southwest 397 457 30,000 240 Climbing New York Center
07:59PM 41.4197 -74.0689 202° Southwest 397 457 30,000  Level New York Center
08:00PM 41.3139 -74.1244 202° Southwest 397 457 30,000  Level New York Center
08:01PM 41.2061 -74.1825 202° Southwest 404 465 30,000  Level New York Center
08:02PM 41.1003 -74.2378 201° Southwest 409 471 30,000  Level New York Center
08:03PM 40.9944 -74.2928 201° Southwest 409 471 30,000  Level New York Center
08:04PM 40.8908 -74.3478 202° Southwest 409 471 30,000  Level New York Center
08:05PM 40.7889 -74.4136 206° Southwest 414 476 30,000  Level New York Center
08:06PM 40.7208 -74.5194 230° Southwest 394 453 30,000  Level New York Center
08:07PM 40.6572 -74.6228 231° Southwest 382 440 30,000  Level New York Center
08:08PM 40.5911 -74.7283 231° Southwest 382 440 30,000  Level New York Center
08:09PM 40.5208 -74.8308 228° Southwest 382 440 30,000  Level New York Center
08:10PM 40.4486 -74.9356 228° Southwest 382 440 30,000  Level New York Center
08:11PM 40.3739 -75.0400 227° Southwest 387 445 30,000  Level New York Center
08:12PM 40.2994 -75.1417 226° Southwest 392 451 30,000  Level New York Center
08:13PM 40.2286 -75.2486 229° Southwest 392 451 30,000  Level New York Center
08:14PM 40.1539 -75.3522 227° Southwest 397 457 30,000  Level New York Center
08:15PM 40.0767 -75.4586 227° Southwest 397 457 30,000  Level New York Center
08:16PM 40.0014 -75.5644 227° Southwest 403 464 30,000  Level New York Center
08:17PM 39.9264 -75.6678 227° Southwest 403 464 30,000  Level New York Center
08:18PM 39.8550 -75.7764 229° Southwest 403 464 30,000  Level New York Center
08:19PM 39.7856 -75.8875 231° Southwest 403 464 30,000  Level New York Center
08:20PM 39.7139 -76.0011 231° Southwest 403 464 30,000  Level New York Center
08:22PM 39.5597 -76.2456 231° Southwest 402 463 30,000  Level Washington Center
08:23PM 39.4842 -76.3578 229° Southwest 402 463 30,000  Level Washington Center
08:24PM 39.4125 -76.4672 230° Southwest 402 463 30,000  Level Washington Center
08:25PM 39.3322 -76.5897 230° Southwest 402 463 30,000  Level Washington Center
08:26PM 39.2625 -76.7014 231° Southwest 402 463 30,000  Level Washington Center
08:27PM 39.1906 -76.8128 230° Southwest 402 463 30,000  Level Washington Center
08:28PM 39.1186 -76.9267 231° Southwest 402 463 30,000  Level Washington Center
08:29PM 39.0464 -77.0350 229° Southwest 402 463 30,000  Level Washington Center
08:30PM 38.9597 -77.1292 220° Southwest 407 468 30,000  Level Washington Center
08:31PM 38.8711 -77.2286 221° Southwest 419 482 30,000  Level Washington Center
08:32PM 38.7819 -77.3253 220° Southwest 419 482 30,000  Level Washington Center
08:33PM 38.6931 -77.4217 220° Southwest 424 488 30,000  Level Washington Center
08:34PM 38.6039 -77.5178 220° Southwest 424 488 30,000  Level Washington Center
08:35PM 38.5339 -77.5956 221° Southwest 424 488 30,000  Level Washington Center
08:36PM 38.4361 -77.7017 220° Southwest 424 488 30,000  Level Washington Center
08:37PM 38.3469 -77.7969 220° Southwest 424 488 30,000  Level Washington Center
08:38PM 38.2597 -77.8950 221° Southwest 424 488 30,000  Level Washington Center
08:39PM 38.1681 -77.9925 220° Southwest 424 488 30,000  Level Washington Center
08:40PM 38.0786 -78.0844 219° Southwest 424 488 30,000  Level Washington Center
08:41PM 38.0039 -78.1692 222° Southwest 424 488 30,000  Level Washington Center
08:42PM 37.9239 -78.2900 230° Southwest 411 473 30,000  Level Washington Center
08:43PM 37.8397 -78.4106 229° Southwest 416 479 30,000  Level Washington Center
08:44PM 37.7642 -78.5181 228° Southwest 416 479 30,000  Level Washington Center
08:45PM 37.6906 -78.6256 229° Southwest 416 479 30,000 -180 Level Washington Center
08:46PM 37.6236 -78.7200 228° Southwest 416 479 29,700 -900 Descending Washington Center
08:47PM 37.5478 -78.8267 228° Southwest 416 479 28,200 -900 Descending Washington Center
08:48PM 37.4697 -78.9333 227° Southwest 416 479 28,000 -120 Descending Washington Center
08:49PM 37.3939 -79.0372 227° Southwest 416 479 28,000  Level Washington Center
08:50PM 37.3175 -79.1461 229° Southwest 416 479 28,000  Level Washington Center
08:51PM 37.2286 -79.2567 225° Southwest 416 479 28,000  Level Washington Center
08:52PM 37.1322 -79.3381 214° Southwest 416 479 28,000  Level Washington Center
08:53PM 37.0358 -79.4192 214° Southwest 421 484 28,000 -60 Level Washington Center
08:54PM 36.9372 -79.5000 213° Southwest 421 484 27,900 -420 Descending Washington Center
08:55PM 36.8408 -79.5783 213° Southwest 427 491 27,200 -720 Descending Washington Center
08:56PM 36.7592 -79.6467 214° Southwest 427 491 26,500 -720 Descending Washington Center
08:57PM 36.6689 -79.7222 214° Southwest 411 473 25,800 -720 Descending Washington Center
08:58PM 36.5792 -79.7914 212° Southwest 387 445 25,200 -720 Descending Atlanta Center
08:59PM 36.4917 -79.8581 211° Southwest 375 432 24,500 -1,020 Descending Atlanta Center
09:00PM 36.4106 -79.9242 213° Southwest 375 432 23,200 -1,260 Descending Atlanta Center
09:01PM 36.3275 -79.9953 215° Southwest 380 437 22,000 -600 Descending Atlanta Center
09:02PM 36.2422 -80.0692 215° Southwest 380 437 22,000 -600 Level Atlanta Center
09:03PM 36.1467 -80.1458 213° Southwest 380 437 20,900 -1,500 Descending Atlanta Center
09:04PM 36.0697 -80.2136 215° Southwest 372 428 19,000 -1,920 Descending Atlanta Center
09:05PM 36.0272 -80.2567 219° Southwest 356 410 18,000 -1,680 Descending Atlanta Center
09:05PM 35.9722 -80.3031 214° Southwest 345 397 16,900 -1,740 Descending Atlanta Center
09:06PM 35.9111 -80.3519 213° Southwest 360 414 15,500 -1,860 Descending Atlanta Center
09:07PM 35.8339 -80.4219 216° Southwest 326 375 13,500 -1,800 Descending Atlanta Center
09:08PM 35.7689 -80.4786 215° Southwest 329 379 12,000 -1,620 Descending Atlanta Center
09:09PM 35.7167 -80.5553 230° Southwest 300 345 10,400 -1,560 Descending Atlanta Center
09:10PM 35.6647 -80.6342 231° Southwest 294 338 8,900 -1,560 Descending Atlanta Center
09:11PM 35.6144 -80.7050 229° Southwest 289 333 7,300 -1,440 Descending Atlanta Center
09:12PM 35.5683 -80.7708 229° Southwest 289 333 6,100 -1,380 Descending Atlanta Center
09:13PM 35.5203 -80.8417 230° Southwest 289 333 4,600 -1,020 Descending Atlanta Center
09:14PM 35.4594 -80.9103 223° Southwest 261 300 4,000 -300 Descending Atlanta Center
09:15PM 35.4017 -80.9406 203° Southwest 212 244 4,000 -360 Level Atlanta Center
09:16PM 35.3561 -80.9525 192° South 177 204 3,400 -900 Descending Atlanta Center
09:17PM 35.3081 -80.9467 174° South 181 208 2,300 -960 Descending Atlanta Center
09:18PM 35.2642 -80.9431 176° South 137 158 1,500 -780 Descending Atlanta Center
09:19PM 35.2283 -80.9394 175° South 128 147 800 -720 Descending Atlanta Center